^^
Saratoga-Weather Station Historical Data
Daily Summary for June 25, 2022 Units:  Both    English   Metric
Daily Weekly Monthly Yearly Custom
  High: Low: Average:
Temperature: 62.1 °F /  16.7 °C 57.4 °F /  14.1 °C 60.3 °F /  15.7 °C
Dew Point: 59.2 °F /  15.1 °C 55.6 °F /  13.1 °C 57.9 °F /  14.4 °C
Humidity: 95% 89% 92%
Wind Speed: 4mph /  6.4km/h - 0.7mph /  1.2km/h
Wind Gust: 6mph /  9.7km/h - -
Wind- - SSW
Pressure: 29.9 in /  1011.5 hPa 29.8 in /  1010.2 hPa -
Precipitation: 0 in /  0.0 mm    
Historical Graphs
 
 
Tabular Data for June 25, 2022
Time Temperature Dew Point Pressure Wind Wind Speed Wind Gust Humidity Rainfall Rate (Hourly) solar
00:01 61.2 °F /  16.2 °C 59.2 °F /  15.1 °C 29.8in /  1010.2hPa NE 0.9mph /  1.4km/h 3mph /  4.8km/h 93% 0in /  0.0mm 0 W/m2
00:06 61.3 °F /  16.3 °C 59 °F /  15 °C 29.8in /  1010.2hPa NE 0.9mph /  1.4km/h 1mph /  1.6km/h 92% 0in /  0.0mm 0 W/m2
00:11 61.5 °F /  16.4 °C 58.8 °F /  14.9 °C 29.8in /  1010.2hPa NE 0.9mph /  1.4km/h 1mph /  1.6km/h 91% 0in /  0.0mm 0 W/m2
00:16 61.5 °F /  16.4 °C 58.8 °F /  14.9 °C 29.8in /  1010.2hPa WNW 2mph /  3.2km/h 4mph /  6.4km/h 91% 0in /  0.0mm 0 W/m2
00:21 61.7 °F /  16.5 °C 58.8 °F /  14.9 °C 29.8in /  1010.2hPa NW 2mph /  3.2km/h 3mph /  4.8km/h 90% 0in /  0.0mm 0 W/m2
00:26 61.9 °F /  16.6 °C 59 °F /  15 °C 29.8in /  1010.2hPa WNW 2.9mph /  4.7km/h 3mph /  4.8km/h 90% 0in /  0.0mm 0 W/m2
00:31 61.9 °F /  16.6 °C 59 °F /  15 °C 29.8in /  1010.2hPa WNW 2mph /  3.2km/h 5mph /  8km/h 90% 0in /  0.0mm 0 W/m2
00:36 61.9 °F /  16.6 °C 59 °F /  15 °C 29.8in /  1010.5hPa WNW 0.9mph /  1.4km/h 5mph /  8km/h 90% 0in /  0.0mm 0 W/m2
00:41 62.1 °F /  16.7 °C 59.2 °F /  15.1 °C 29.8in /  1010.2hPa NW 2mph /  3.2km/h 3mph /  4.8km/h 90% 0in /  0.0mm 0 W/m2
00:46 62.1 °F /  16.7 °C 58.8 °F /  14.9 °C 29.8in /  1010.2hPa NW 0.9mph /  1.4km/h 4mph /  6.4km/h 89% 0in /  0.0mm 0 W/m2
00:51 62.1 °F /  16.7 °C 58.8 °F /  14.9 °C 29.8in /  1010.2hPa NW 0.9mph /  1.4km/h 2mph /  3.2km/h 89% 0in /  0.0mm 0 W/m2
00:56 61.9 °F /  16.6 °C 59 °F /  15 °C 29.8in /  1010.2hPa NNW 2.9mph /  4.7km/h 4mph /  6.4km/h 90% 0in /  0.0mm 0 W/m2
01:01 61.9 °F /  16.6 °C 59 °F /  15 °C 29.8in /  1010.2hPa Calm   1mph /  1.6km/h 90% 0in /  0.0mm 0 W/m2
01:06 61.9 °F /  16.6 °C 59 °F /  15 °C 29.8in /  1010.2hPa East 0.9mph /  1.4km/h 2mph /  3.2km/h 90% 0in /  0.0mm 0 W/m2
01:11 61.7 °F /  16.5 °C 58.8 °F /  14.9 °C 29.8in /  1010.2hPa Calm   1mph /  1.6km/h 90% 0in /  0.0mm 0 W/m2
01:16 61.7 °F /  16.5 °C 58.8 °F /  14.9 °C 29.8in /  1010.2hPa West 0.9mph /  1.4km/h 3mph /  4.8km/h 90% 0in /  0.0mm 0 W/m2
01:21 61.5 °F /  16.4 °C 58.6 °F /  14.8 °C 29.8in /  1010.2hPa West 2.9mph /  4.7km/h 6mph /  9.7km/h 90% 0in /  0.0mm 0 W/m2
01:26 61.5 °F /  16.4 °C 58.6 °F /  14.8 °C 29.8in /  1010.2hPa ENE 2mph /  3.2km/h 2mph /  3.2km/h 90% 0in /  0.0mm 0 W/m2
01:31 61.7 °F /  16.5 °C 58.8 °F /  14.9 °C 29.8in /  1010.2hPa Calm   2mph /  3.2km/h 90% 0in /  0.0mm 0 W/m2
01:36 61.7 °F /  16.5 °C 58.8 °F /  14.9 °C 29.8in /  1010.2hPa NE 2mph /  3.2km/h 3mph /  4.8km/h 90% 0in /  0.0mm 0 W/m2
01:41 61.9 °F /  16.6 °C 59 °F /  15 °C 29.8in /  1010.5hPa NW 4mph /  6.4km/h 4mph /  6.4km/h 90% 0in /  0.0mm 0 W/m2
01:46 62.1 °F /  16.7 °C 59.2 °F /  15.1 °C 29.8in /  1010.5hPa WNW 0.9mph /  1.4km/h 3mph /  4.8km/h 90% 0in /  0.0mm 0 W/m2
01:51 62.1 °F /  16.7 °C 59.2 °F /  15.1 °C 29.8in /  1010.5hPa NNW 2.9mph /  4.7km/h 6mph /  9.7km/h 90% 0in /  0.0mm 0 W/m2
01:56 62.1 °F /  16.7 °C 59.2 °F /  15.1 °C 29.8in /  1010.5hPa NW 2mph /  3.2km/h 4mph /  6.4km/h 90% 0in /  0.0mm 0 W/m2
02:01 61.9 °F /  16.6 °C 59 °F /  15 °C 29.8in /  1010.5hPa NW 2mph /  3.2km/h 6mph /  9.7km/h 90% 0in /  0.0mm 0 W/m2
02:06 61.9 °F /  16.6 °C 59 °F /  15 °C 29.8in /  1010.5hPa NNW 2mph /  3.2km/h 4mph /  6.4km/h 90% 0in /  0.0mm 0 W/m2
02:11 61.7 °F /  16.5 °C 58.8 °F /  14.9 °C 29.8in /  1010.5hPa WSW 2.9mph /  4.7km/h 4mph /  6.4km/h 90% 0in /  0.0mm 0 W/m2
02:16 61.5 °F /  16.4 °C 58.6 °F /  14.8 °C 29.8in /  1010.5hPa NE 0.9mph /  1.4km/h 3mph /  4.8km/h 90% 0in /  0.0mm 0 W/m2
02:21 61.5 °F /  16.4 °C 58.6 °F /  14.8 °C 29.8in /  1010.5hPa East 0.9mph /  1.4km/h 1mph /  1.6km/h 90% 0in /  0.0mm 0 W/m2
02:26 61.3 °F /  16.3 °C 58.6 °F /  14.8 °C 29.9in /  1010.8hPa Calm   3mph /  4.8km/h 91% 0in /  0.0mm 0 W/m2
02:31 61.3 °F /  16.3 °C 58.6 °F /  14.8 °C 29.8in /  1010.5hPa ENE 2.9mph /  4.7km/h 3mph /  4.8km/h 91% 0in /  0.0mm 0 W/m2
02:36 61.2 °F /  16.2 °C 58.5 °F /  14.7 °C 29.9in /  1010.8hPa East 0.9mph /  1.4km/h 3mph /  4.8km/h 91% 0in /  0.0mm 0 W/m2
02:41 61.2 °F /  16.2 °C 58.5 °F /  14.7 °C 29.9in /  1010.8hPa ESE 0.9mph /  1.4km/h 2mph /  3.2km/h 91% 0in /  0.0mm 0 W/m2
02:46 61 °F /  16.1 °C 58.3 °F /  14.6 °C 29.9in /  1010.8hPa Calm   2mph /  3.2km/h 91% 0in /  0.0mm 0 W/m2
02:51 61 °F /  16.1 °C 58.3 °F /  14.6 °C 29.9in /  1010.8hPa Calm     91% 0in /  0.0mm 0 W/m2
02:56 60.6 °F /  15.9 °C 58.3 °F /  14.6 °C 29.9in /  1010.8hPa Calm   3mph /  4.8km/h 92% 0in /  0.0mm 0 W/m2
03:01 60.6 °F /  15.9 °C 58.3 °F /  14.6 °C 29.9in /  1010.8hPa SE 0.9mph /  1.4km/h 2mph /  3.2km/h 92% 0in /  0.0mm 0 W/m2
03:06 60.6 °F /  15.9 °C 58.3 °F /  14.6 °C 29.9in /  1010.8hPa Calm   1mph /  1.6km/h 92% 0in /  0.0mm 0 W/m2
03:11 60.4 °F /  15.8 °C 58.1 °F /  14.5 °C 29.9in /  1010.8hPa Calm     92% 0in /  0.0mm 0 W/m2
03:16 60.4 °F /  15.8 °C 58.1 °F /  14.5 °C 29.9in /  1011.2hPa Calm   1mph /  1.6km/h 92% 0in /  0.0mm 0 W/m2
03:21 60.4 °F /  15.8 °C 58.1 °F /  14.5 °C 29.9in /  1011.2hPa Calm   1mph /  1.6km/h 92% 0in /  0.0mm 0 W/m2
03:26 60.3 °F /  15.7 °C 57.9 °F /  14.4 °C 29.9in /  1011.2hPa Calm   2mph /  3.2km/h 92% 0in /  0.0mm 0 W/m2
03:31 60.3 °F /  15.7 °C 58.3 °F /  14.6 °C 29.9in /  1011.2hPa Calm   1mph /  1.6km/h 93% 0in /  0.0mm 0 W/m2
03:36 60.3 °F /  15.7 °C 58.3 °F /  14.6 °C 29.9in /  1011.2hPa Calm   1mph /  1.6km/h 93% 0in /  0.0mm 0 W/m2
03:41 60.3 °F /  15.7 °C 58.3 °F /  14.6 °C 29.9in /  1011.2hPa Calm   1mph /  1.6km/h 93% 0in /  0.0mm 0 W/m2
03:46 60.3 °F /  15.7 °C 58.3 °F /  14.6 °C 29.9in /  1011.2hPa Calm   1mph /  1.6km/h 93% 0in /  0.0mm 0 W/m2
03:51 60.3 °F /  15.7 °C 58.3 °F /  14.6 °C 29.9in /  1011.2hPa Calm   2mph /  3.2km/h 93% 0in /  0.0mm 0 W/m2
03:56 60.3 °F /  15.7 °C 57.9 °F /  14.4 °C 29.9in /  1011.2hPa Calm     92% 0in /  0.0mm 0 W/m2
04:01 60.1 °F /  15.6 °C 57.7 °F /  14.3 °C 29.9in /  1011.2hPa NE 0.9mph /  1.4km/h 2mph /  3.2km/h 92% 0in /  0.0mm 0 W/m2
04:06 59.9 °F /  15.5 °C 57.9 °F /  14.4 °C 29.9in /  1011.2hPa Calm     93% 0in /  0.0mm 0 W/m2
04:11 59.5 °F /  15.3 °C 57.6 °F /  14.2 °C 29.9in /  1011.2hPa Calm   2mph /  3.2km/h 93% 0in /  0.0mm 0 W/m2
04:16 59.5 °F /  15.3 °C 57.6 °F /  14.2 °C 29.9in /  1011.2hPa Calm   1mph /  1.6km/h 93% 0in /  0.0mm 0 W/m2
04:21 59.4 °F /  15.2 °C 57.4 °F /  14.1 °C 29.9in /  1011.2hPa NE 0.9mph /  1.4km/h 1mph /  1.6km/h 93% 0in /  0.0mm 0 W/m2
04:26 59.2 °F /  15.1 °C 57.2 °F /  14 °C 29.9in /  1011.2hPa NE 0.9mph /  1.4km/h 1mph /  1.6km/h 93% 0in /  0.0mm 0 W/m2
04:31 58.8 °F /  14.9 °C 56.8 °F /  13.8 °C 29.9in /  1011.2hPa NE 0.9mph /  1.4km/h 1mph /  1.6km/h 93% 0in /  0.0mm 0 W/m2
04:36 58.6 °F /  14.8 °C 56.7 °F /  13.7 °C 29.9in /  1011.2hPa Calm     93% 0in /  0.0mm 0 W/m2
04:41 58.5 °F /  14.7 °C 56.5 °F /  13.6 °C 29.9in /  1011.5hPa Calm     93% 0in /  0.0mm 0 W/m2
04:46 58.5 °F /  14.7 °C 56.5 °F /  13.6 °C 29.9in /  1011.2hPa Calm     93% 0in /  0.0mm 0 W/m2
04:51 58.3 °F /  14.6 °C 56.3 °F /  13.5 °C 29.9in /  1011.2hPa Calm     93% 0in /  0.0mm 0 W/m2
04:56 58.1 °F /  14.5 °C 56.3 °F /  13.5 °C 29.9in /  1011.2hPa Calm     94% 0in /  0.0mm 0 W/m2
05:01 57.9 °F /  14.4 °C 56.1 °F /  13.4 °C 29.9in /  1011.5hPa Calm     94% 0in /  0.0mm 0 W/m2
05:06 57.9 °F /  14.4 °C 56.1 °F /  13.4 °C 29.9in /  1011.2hPa Calm     94% 0in /  0.0mm 0 W/m2
05:11 57.7 °F /  14.3 °C 55.9 °F /  13.3 °C 29.9in /  1011.5hPa Calm     94% 0in /  0.0mm 0 W/m2
05:16 57.7 °F /  14.3 °C 55.9 °F /  13.3 °C 29.9in /  1011.2hPa Calm     94% 0in /  0.0mm 0 W/m2
05:21 57.6 °F /  14.2 °C 55.8 °F /  13.2 °C 29.9in /  1011.2hPa Calm     94% 0in /  0.0mm 0 W/m2
05:26 57.6 °F /  14.2 °C 55.8 °F /  13.2 °C 29.9in /  1011.2hPa Calm     94% 0in /  0.0mm 0 W/m2
05:31 57.6 °F /  14.2 °C 55.8 °F /  13.2 °C 29.9in /  1011.5hPa Calm     94% 0in /  0.0mm 0 W/m2
05:36 57.4 °F /  14.1 °C 55.6 °F /  13.1 °C 29.9in /  1011.5hPa Calm     94% 0in /  0.0mm 5 W/m2
05:41 57.4 °F /  14.1 °C 55.9 °F /  13.3 °C 29.9in /  1011.5hPa Calm     95% 0in /  0.0mm 7 W/m2
05:46 57.4 °F /  14.1 °C 55.9 °F /  13.3 °C 29.9in /  1011.5hPa Calm     95% 0in /  0.0mm 9 W/m2
05:51 57.4 °F /  14.1 °C 55.9 °F /  13.3 °C 29.9in /  1011.5hPa Calm     95% 0in /  0.0mm 11 W/m2
05:57 57.7 °F /  14.3 °C 56.3 °F /  13.5 °C 29.9in /  1011.5hPa Calm     95% 0in /  0.0mm 12 W/m2
06:02 57.7 °F /  14.3 °C 56.3 °F /  13.5 °C 29.9in /  1011.5hPa NW 0.9mph /  1.4km/h 1mph /  1.6km/h 95% 0in /  0.0mm 12 W/m2
Juneau County Weather
Compliments of Weather Underground - 2 mb